Latest  Newer  Older  Last 2 hours animation  Current image  Latest image 
Rain/snow radar  Infrared sat images 
Real-time lightning map

All time is UTC (add 2 hours to UTC in wintertime, 3 hours to UTC in DST for Latvia local time)

2019/07/21 17:20 EVRA 211720Z 26008KT 200V330 9999 VCTS FEW010 BKN042CB 22/16 Q1015 TEMPO 2000 TSRA
2019/07/21 17:20 EVLA 211720Z AUTO 25011KT 9999 BKN010/// 19/17 Q1015
2019/07/21 17:20 EVVA 211720Z AUTO 13003KT 9999 FEW034 OVC043 19/18 Q1014
2019/07/21 17:20 EYKA 211720Z 25006KT 220V280 CAVOK 23/15 Q1015
2019/07/21 17:20 EYPA 211720Z 28005KT 220V350 9999 BKN009 19/17 Q1016
2019/07/21 17:20 EYSA 211720Z 26006KT 9999 FEW049 BKN092 19/17 Q1015 BLU NOSIG
2019/07/21 17:20 EYVI 211720Z 15003KT CAVOK 25/13 Q1015 NOSIG
2019/07/21 14:50 EEKA 211450Z 13013KT CAVOK 26/09 Q1015
2019/07/21 17:00 EEKE 211700Z AUTO 16010KT 120V180 9999NDV NSC 22/15 Q1014
2019/07/21 12:50 EEPU 211250Z 21005KT 130V270 9999 FEW/// 27/12 Q1016
2019/07/21 17:20 EETN 211720Z 08009KT CAVOK 25/11 Q1015 NOSIG
2019/07/21 16:50 EETU 211650Z AUTO 13005KT 9999 NCD 24/12 Q1016
   RIGA AIRPORT     EVRA               56 55N  023 58E   10   X     T          6 LV
   LIEPAJA INTL     EVLA        26406  56 31N  021 06E    4   X                8 LV
   VENTPILS         EVVA               57 21N  021 33E    6   X                8 LV
   KAUNAS           EYKA               54 54N  023 55E   77   X     T          6 LT
   PALANGA INTL     EYPA               55 55N  021 03E   10   X                6 LT
   SIAULIAI INTL    EYSA               55 54N  023 24E  135   X     T          6 LT
   VILNIUS INTL     EYVI        26730  54 38N  025 17E  197   X     T          6 LT
   KARDLA           EEKA        26116  58 59N  022 50E    4   X                8 EE
   KURESSAARE       EEKE               58 14N  022 31E    4   X                8 EE
   PARNU            EEPU               58 25N  024 28E   14   X                8 EE
   TALLINN          EETN        26038  59 24N  024 49E   40   X     T          8 EE
   TARTU            EETU               58 19N  026 41E   67   X                8 EE

cloud coverage image from sat24.com and METAR data from weather.noaa.gov